createdAt,value
2018-06-25T00:00:01.127Z,12.46
2018-06-25T00:00:05.331Z,12.45
2018-06-25T00:00:09.545Z,12.46
2018-06-25T00:00:13.745Z,12.46
2018-06-25T00:00:17.951Z,12.46
2018-06-25T00:00:22.204Z,12.46
2018-06-25T00:00:26.403Z,12.46
2018-06-25T00:00:30.500Z,12.46
2018-06-25T00:00:34.824Z,12.45
2018-06-25T00:00:39.078Z,12.45
2018-06-25T00:00:43.288Z,12.45
2018-06-25T00:00:47.385Z,12.45
2018-06-25T00:00:51.490Z,12.44
2018-06-25T00:00:55.811Z,12.45
2018-06-25T00:01:00.021Z,12.45
2018-06-25T00:01:04.363Z,12.43
2018-06-25T00:01:08.569Z,12.44
2018-06-25T00:01:12.889Z,12.45
2018-06-25T00:01:17.243Z,12.44
2018-06-25T00:01:21.338Z,12.44
2018-06-25T00:01:25.643Z,12.44
2018-06-25T00:01:29.853Z,12.43
2018-06-25T00:01:34.057Z,12.44
2018-06-25T00:01:38.272Z,12.44
2018-06-25T00:01:42.479Z,12.43
2018-06-25T00:01:46.577Z,12.44
2018-06-25T00:01:50.889Z,12.44
2018-06-25T00:01:54.982Z,12.42
2018-06-25T00:01:59.078Z,12.43
2018-06-25T00:02:03.489Z,12.42
2018-06-25T00:02:07.700Z,12.43
2018-06-25T00:02:11.936Z,12.43
2018-06-25T00:02:16.261Z,12.42
2018-06-25T00:02:20.248Z,12.42
2018-06-25T00:02:24.465Z,12.42
2018-06-25T00:02:28.669Z,12.41
2018-06-25T00:02:32.978Z,12.41
2018-06-25T00:02:37.181Z,12.41
2018-06-25T00:02:41.390Z,12.41
2018-06-25T00:02:45.598Z,12.41
2018-06-25T00:02:49.810Z,12.41
2018-06-25T00:02:54.019Z,12.41
2018-06-25T00:02:58.323Z,12.4
2018-06-25T00:03:02.534Z,12.4
2018-06-25T00:03:06.736Z,12.4
2018-06-25T00:03:11.051Z,12.4
2018-06-25T00:03:15.265Z,12.4
2018-06-25T00:03:19.573Z,12.41
2018-06-25T00:03:23.886Z,12.41
2018-06-25T00:03:28.199Z,12.41
2018-06-25T00:03:32.301Z,12.4
2018-06-25T00:03:36.392Z,12.39
2018-06-25T00:03:40.595Z,12.4
2018-06-25T00:03:44.797Z,12.4
2018-06-25T00:03:48.896Z,12.4
2018-06-25T00:03:53.207Z,12.39
2018-06-25T00:03:57.517Z,12.4
2018-06-25T00:04:01.723Z,12.4
2018-06-25T00:04:05.926Z,12.39
2018-06-25T00:04:10.024Z,12.39
2018-06-25T00:04:14.120Z,12.39
2018-06-25T00:04:18.432Z,12.39
2018-06-25T00:04:22.747Z,12.39
2018-06-25T00:04:26.846Z,12.39
2018-06-25T00:04:30.941Z,12.39
2018-06-25T00:04:35.038Z,12.38
2018-06-25T00:04:39.137Z,12.38
2018-06-25T00:04:43.462Z,12.38
2018-06-25T00:04:47.766Z,12.38
2018-06-25T00:04:52.071Z,12.38
2018-06-25T00:04:56.170Z,12.38
2018-06-25T00:05:00.369Z,12.38
2018-06-25T00:05:04.475Z,12.37
2018-06-25T00:05:08.670Z,12.37
2018-06-25T00:05:12.873Z,12.37
2018-06-25T00:05:17.182Z,12.37
2018-06-25T00:05:21.497Z,12.37
2018-06-25T00:05:25.591Z,12.38
2018-06-25T00:05:29.693Z,12.37
2018-06-25T00:05:34.006Z,12.37
2018-06-25T00:05:38.214Z,12.37
2018-06-25T00:05:42.413Z,12.37
2018-06-25T00:05:46.640Z,12.37
2018-06-25T00:05:50.742Z,12.36
2018-06-25T00:05:54.952Z,12.37
2018-06-25T00:05:59.164Z,12.36
2018-06-25T00:06:03.357Z,12.37
2018-06-25T00:06:07.360Z,12.36
2018-06-25T00:06:11.665Z,12.36
2018-06-25T00:06:15.881Z,12.36
2018-06-25T00:06:19.981Z,12.36
2018-06-25T00:06:24.186Z,12.35
2018-06-25T00:06:28.290Z,12.37
2018-06-25T00:06:32.488Z,12.36
2018-06-25T00:06:36.693Z,12.36
2018-06-25T00:06:41.014Z,12.36
2018-06-25T00:06:45.211Z,12.36
2018-06-25T00:06:49.316Z,12.35
2018-06-25T00:06:53.409Z,12.35
2018-06-25T00:06:57.504Z,12.35
2018-06-25T00:07:01.818Z,12.36
2018-06-25T00:07:06.029Z,12.36
2018-06-25T00:07:10.347Z,12.35
2018-06-25T00:07:14.554Z,12.36
2018-06-25T00:07:18.758Z,12.35
2018-06-25T00:07:22.852Z,12.35
2018-06-25T00:07:27.170Z,12.34
2018-06-25T00:07:31.484Z,12.35
2018-06-25T00:07:35.580Z,12.34
2018-06-25T00:07:39.790Z,12.35
2018-06-25T00:07:43.992Z,12.35
2018-06-25T00:07:48.198Z,12.34
2018-06-25T00:07:52.513Z,12.34
2018-06-25T00:07:56.604Z,12.35
2018-06-25T00:08:00.806Z,12.34
2018-06-25T00:08:04.794Z,12.34
2018-06-25T00:08:08.675Z,12.35
2018-06-25T00:08:12.985Z,12.34
2018-06-25T00:08:17.290Z,12.34
2018-06-25T00:08:21.492Z,12.34
2018-06-25T00:08:25.690Z,12.34
2018-06-25T00:08:29.679Z,12.33
2018-06-25T00:08:33.985Z,12.34
2018-06-25T00:08:38.086Z,12.34
2018-06-25T00:08:42.071Z,12.33
2018-06-25T00:08:46.385Z,12.33
2018-06-25T00:08:50.368Z,12.33
2018-06-25T00:08:54.462Z,12.33
2018-06-25T00:08:58.662Z,12.33
2018-06-25T00:09:02.871Z,12.32
2018-06-25T00:09:06.974Z,12.33
2018-06-25T00:09:11.283Z,12.32
2018-06-25T00:09:15.599Z,12.33
2018-06-25T00:09:19.601Z,12.32
2018-06-25T00:09:23.811Z,12.33
2018-06-25T00:09:27.799Z,12.33
2018-06-25T00:09:32.006Z,12.32
2018-06-25T00:09:36.318Z,12.32
2018-06-25T00:09:40.535Z,12.32
2018-06-25T00:09:44.631Z,12.33
2018-06-25T00:09:48.935Z,12.31
2018-06-25T00:09:53.130Z,12.31
2018-06-25T00:09:57.327Z,12.31
2018-06-25T00:10:01.434Z,12.32
2018-06-25T00:10:05.641Z,12.31
2018-06-25T00:10:09.991Z,12.32
2018-06-25T00:10:14.089Z,12.32
2018-06-25T00:10:18.186Z,12.32
2018-06-25T00:10:22.416Z,12.32
2018-06-25T00:10:26.620Z,12.31
2018-06-25T00:10:30.722Z,12.32
2018-06-25T00:10:35.043Z,12.31
2018-06-25T00:10:39.246Z,12.31
2018-06-25T00:10:43.452Z,12.31
2018-06-25T00:10:47.651Z,12.31
2018-06-25T00:10:52.004Z,12.31
2018-06-25T00:10:56.199Z,12.31
2018-06-25T00:11:00.503Z,12.31
2018-06-25T00:11:04.710Z,12.31
2018-06-25T00:11:08.914Z,12.31
2018-06-25T00:11:13.008Z,12.31
2018-06-25T00:11:17.220Z,12.3
2018-06-25T00:11:21.322Z,12.3
2018-06-25T00:11:25.529Z,12.3
2018-06-25T00:11:29.509Z,12.3
2018-06-25T00:11:33.710Z,12.3
2018-06-25T00:11:37.915Z,12.3
2018-06-25T00:11:42.020Z,12.3
2018-06-25T00:11:46.332Z,12.3
2018-06-25T00:11:50.536Z,12.3
2018-06-25T00:11:54.854Z,12.3
2018-06-25T00:11:59.064Z,12.29
2018-06-25T00:12:03.290Z,12.29
2018-06-25T00:12:07.504Z,12.29
2018-06-25T00:12:11.810Z,12.29
2018-06-25T00:12:15.904Z,12.29
2018-06-25T00:12:19.999Z,12.29
2018-06-25T00:12:24.206Z,12.29
2018-06-25T00:12:28.522Z,12.29
2018-06-25T00:12:32.824Z,12.29
2018-06-25T00:12:37.138Z,12.29
2018-06-25T00:12:41.337Z,12.29
2018-06-25T00:12:45.434Z,12.28
2018-06-25T00:12:49.634Z,12.29
2018-06-25T00:12:53.835Z,12.29
2018-06-25T00:12:57.933Z,12.29
2018-06-25T00:13:02.132Z,12.28
2018-06-25T00:13:06.121Z,12.29
2018-06-25T00:13:10.327Z,12.28
2018-06-25T00:13:14.532Z,12.29
2018-06-25T00:13:18.737Z,12.28
2018-06-25T00:13:22.834Z,12.28
2018-06-25T00:13:27.039Z,12.28
2018-06-25T00:13:31.346Z,12.28
2018-06-25T00:13:35.676Z,12.28
2018-06-25T00:13:39.995Z,12.28
2018-06-25T00:13:44.083Z,12.28
2018-06-25T00:13:48.338Z,12.27
2018-06-25T00:13:52.538Z,12.28
2018-06-25T00:13:56.737Z,12.28
2018-06-25T00:14:01.045Z,12.28
2018-06-25T00:14:05.255Z,12.27
2018-06-25T00:14:09.135Z,12.27
2018-06-25T00:14:13.338Z,12.27
2018-06-25T00:14:17.432Z,12.27
2018-06-25T00:14:21.534Z,12.28
2018-06-25T00:14:25.649Z,12.27
2018-06-25T00:14:29.760Z,12.28
2018-06-25T00:14:34.077Z,12.27
2018-06-25T00:14:38.393Z,12.27
2018-06-25T00:14:42.599Z,12.27
2018-06-25T00:14:46.812Z,12.27
2018-06-25T00:14:51.012Z,12.26
2018-06-25T00:14:55.106Z,12.26
2018-06-25T00:14:59.100Z,12.26
2018-06-25T00:15:03.314Z,12.27
2018-06-25T00:15:07.513Z,12.27
2018-06-25T00:15:11.818Z,12.27
2018-06-25T00:15:16.018Z,12.25
2018-06-25T00:15:20.269Z,12.26
2018-06-25T00:15:24.368Z,12.26
2018-06-25T00:15:28.468Z,12.26
2018-06-25T00:15:32.781Z,12.26
2018-06-25T00:15:36.879Z,12.25
2018-06-25T00:15:41.083Z,12.25
2018-06-25T00:15:45.279Z,12.26
2018-06-25T00:15:49.484Z,12.26
2018-06-25T00:15:53.688Z,12.25
2018-06-25T00:15:57.785Z,12.25
2018-06-25T00:16:01.986Z,12.25
2018-06-25T00:16:05.974Z,12.25
2018-06-25T00:16:10.179Z,12.25
2018-06-25T00:16:14.381Z,12.25
2018-06-25T00:16:18.627Z,12.25
2018-06-25T00:16:22.932Z,12.24
2018-06-25T00:16:27.131Z,12.24
2018-06-25T00:16:31.231Z,12.25
2018-06-25T00:16:35.538Z,12.24
2018-06-25T00:16:39.845Z,12.24
2018-06-25T00:16:44.156Z,12.25
2018-06-25T00:16:48.353Z,12.24
2018-06-25T00:16:52.670Z,12.24
2018-06-25T00:16:56.870Z,12.24
2018-06-25T00:17:01.077Z,12.24
2018-06-25T00:17:05.399Z,12.24
2018-06-25T00:17:09.709Z,12.23
2018-06-25T00:17:14.019Z,12.23
2018-06-25T00:17:18.111Z,12.23
2018-06-25T00:17:22.423Z,12.24
2018-06-25T00:17:26.628Z,12.23
2018-06-25T00:17:30.733Z,12.24
2018-06-25T00:17:35.054Z,12.23
2018-06-25T00:17:39.367Z,12.23
2018-06-25T00:17:43.570Z,12.23
2018-06-25T00:17:47.884Z,12.23
2018-06-25T00:17:52.084Z,12.22
2018-06-25T00:17:56.178Z,12.23
2018-06-25T00:18:00.380Z,12.23
2018-06-25T00:18:04.603Z,12.23
2018-06-25T00:18:08.699Z,12.23
2018-06-25T00:18:12.911Z,12.23
2018-06-25T00:18:17.114Z,12.23
2018-06-25T00:18:21.422Z,12.23
2018-06-25T00:18:25.625Z,12.23
2018-06-25T00:18:29.726Z,12.23
2018-06-25T00:18:33.821Z,12.23
2018-06-25T00:18:37.922Z,12.22
2018-06-25T00:18:42.017Z,12.22
2018-06-25T00:18:46.007Z,12.22
2018-06-25T00:18:50.214Z,12.21
2018-06-25T00:18:54.309Z,12.21
2018-06-25T00:18:58.620Z,12.21
2018-06-25T00:19:02.829Z,12.21
2018-06-25T00:19:07.145Z,12.21
2018-06-25T00:19:11.349Z,12.21
2018-06-25T00:19:15.553Z,12.21
2018-06-25T00:19:19.765Z,12.21
2018-06-25T00:19:23.962Z,12.22
2018-06-25T00:19:27.951Z,12.21
2018-06-25T00:19:32.263Z,12.21
2018-06-25T00:19:36.371Z,12.21
2018-06-25T00:19:40.683Z,12.21
2018-06-25T00:19:44.880Z,12.2
2018-06-25T00:19:49.080Z,12.21
2018-06-25T00:19:53.393Z,12.2
2018-06-25T00:19:57.490Z,12.21
2018-06-25T00:20:01.698Z,12.2
2018-06-25T00:20:05.909Z,12.2
2018-06-25T00:20:10.112Z,12.2
2018-06-25T00:20:14.098Z,12.21
2018-06-25T00:20:18.404Z,12.21
2018-06-25T00:20:22.655Z,12.21
2018-06-25T00:20:26.854Z,12.21
2018-06-25T00:20:31.060Z,12.2
2018-06-25T00:20:35.278Z,12.21
2018-06-25T00:20:39.484Z,12.2
2018-06-25T00:20:43.688Z,12.2
2018-06-25T00:20:47.994Z,12.21
2018-06-25T00:20:52.201Z,12.19
2018-06-25T00:20:56.405Z,12.2
2018-06-25T00:21:00.729Z,12.19
2018-06-25T00:21:04.929Z,12.2
2018-06-25T00:21:09.131Z,12.2
2018-06-25T00:21:13.442Z,12.21
2018-06-25T00:21:17.748Z,12.19
2018-06-25T00:21:21.838Z,12.19
2018-06-25T00:21:26.035Z,12.19
2018-06-25T00:21:30.230Z,12.2
2018-06-25T00:21:34.433Z,12.19
2018-06-25T00:21:38.529Z,12.2
2018-06-25T00:21:42.729Z,12.19
2018-06-25T00:21:47.035Z,12.19
2018-06-25T00:21:51.233Z,12.18
2018-06-25T00:21:55.541Z,12.18
2018-06-25T00:21:59.849Z,12.18
2018-06-25T00:22:03.949Z,12.19
2018-06-25T00:22:07.938Z,12.18
2018-06-25T00:22:12.206Z,12.18
2018-06-25T00:22:16.307Z,12.17
2018-06-25T00:22:20.618Z,12.18
2018-06-25T00:22:24.819Z,12.18
2018-06-25T00:22:29.032Z,12.18
2018-06-25T00:22:33.235Z,12.16
2018-06-25T00:22:37.434Z,12.17
2018-06-25T00:22:41.528Z,12.17
2018-06-25T00:22:45.836Z,12.16
2018-06-25T00:22:50.141Z,12.16
2018-06-25T00:22:54.339Z,12.16
2018-06-25T00:22:58.433Z,12.16
2018-06-25T00:23:02.528Z,12.16
2018-06-25T00:23:06.631Z,12.15
2018-06-25T00:23:10.842Z,12.16
2018-06-25T00:23:15.163Z,12.16
2018-06-25T00:23:19.475Z,12.16
2018-06-25T00:23:23.577Z,12.16
2018-06-25T00:23:27.777Z,12.16
2018-06-25T00:23:31.873Z,12.15
2018-06-25T00:23:36.101Z,12.15
2018-06-25T00:23:40.304Z,12.15
2018-06-25T00:23:44.604Z,12.15
2018-06-25T00:23:48.701Z,12.14
2018-06-25T00:23:52.846Z,12.13
2018-06-25T00:23:56.942Z,12.14
2018-06-25T00:24:01.254Z,12.15
2018-06-25T00:24:05.680Z,12.14
2018-06-25T00:24:09.982Z,12.15
2018-06-25T00:24:14.180Z,12.14
2018-06-25T00:24:18.283Z,12.13
2018-06-25T00:24:22.590Z,12.12
2018-06-25T00:24:26.907Z,12.13
2018-06-25T00:24:31.214Z,12.13
2018-06-25T00:24:35.432Z,12.13
2018-06-25T00:24:39.632Z,12.12
2018-06-25T00:24:43.946Z,12.12
2018-06-25T00:24:48.254Z,12.12
2018-06-25T00:24:52.561Z,12.12
2018-06-25T00:24:56.863Z,12.12
2018-06-25T00:25:01.065Z,12.12
2018-06-25T00:25:04.963Z,12.12
2018-06-25T00:25:09.071Z,12.12
2018-06-25T00:25:13.277Z,12.11
2018-06-25T00:25:17.592Z,12.11
2018-06-25T00:25:21.792Z,12.11
2018-06-25T00:25:25.996Z,12.12
2018-06-25T00:25:30.312Z,12.11
2018-06-25T00:25:34.621Z,12.11
2018-06-25T00:25:39.013Z,12.11
2018-06-25T00:25:43.218Z,12.11
2018-06-25T00:25:47.533Z,12.1
2018-06-25T00:25:51.743Z,12.11
2018-06-25T00:25:55.847Z,12.1
2018-06-25T00:26:00.056Z,12.1
2018-06-25T00:26:04.091Z,12.1
2018-06-25T00:26:08.083Z,12.09
2018-06-25T00:26:12.396Z,12.1
2018-06-25T00:26:16.596Z,12.1
2018-06-25T00:26:20.804Z,12.1
2018-06-25T00:26:25.117Z,12.09
2018-06-25T00:26:29.433Z,12.1
2018-06-25T00:26:33.692Z,12.1
2018-06-25T00:26:37.999Z,12.08
2018-06-25T00:26:42.106Z,12.09
2018-06-25T00:26:46.422Z,12.09
2018-06-25T00:26:50.732Z,12.09
2018-06-25T00:26:55.045Z,12.09
2018-06-25T00:26:59.250Z,12.08
2018-06-25T00:27:03.463Z,12.09
2018-06-25T00:27:07.774Z,12.08
2018-06-25T00:27:11.973Z,12.09
2018-06-25T00:27:16.175Z,12.08
2018-06-25T00:27:20.479Z,12.08
2018-06-25T00:27:24.806Z,12.08
2018-06-25T00:27:29.017Z,12.08
2018-06-25T00:27:33.225Z,12.07
2018-06-25T00:27:37.537Z,12.07
2018-06-25T00:27:41.742Z,12.07
2018-06-25T00:27:45.843Z,12.07
2018-06-25T00:27:50.050Z,12.07
2018-06-25T00:27:54.260Z,12.07
2018-06-25T00:27:58.570Z,12.07
2018-06-25T00:28:02.612Z,12.06
2018-06-25T00:28:06.932Z,12.06
2018-06-25T00:28:11.035Z,12.06
2018-06-25T00:28:15.240Z,12.06
2018-06-25T00:28:19.443Z,12.05
2018-06-25T00:28:23.647Z,12.06
2018-06-25T00:28:27.852Z,12.06
2018-06-25T00:28:32.162Z,12.06
2018-06-25T00:28:36.366Z,12.06
2018-06-25T00:28:40.571Z,12.06
2018-06-25T00:28:44.883Z,12.06
2018-06-25T00:28:49.136Z,12.05
2018-06-25T00:28:53.443Z,12.05
2018-06-25T00:28:57.432Z,12.05
2018-06-25T00:29:01.792Z,12.05
2018-06-25T00:29:05.886Z,12.04
2018-06-25T00:29:10.209Z,12.05
2018-06-25T00:29:14.523Z,12.04
2018-06-25T00:29:18.616Z,12.05
2018-06-25T00:29:22.600Z,12.04
2018-06-25T00:29:26.825Z,12.04
2018-06-25T00:29:31.139Z,12.04
2018-06-25T00:29:35.345Z,12.04
2018-06-25T00:29:39.664Z,12.05
2018-06-25T00:29:43.765Z,12.03
2018-06-25T00:29:48.078Z,12.03
2018-06-25T00:29:52.284Z,12.04
2018-06-25T00:29:56.383Z,12.04
2018-06-25T00:30:00.377Z,12.03
2018-06-25T00:30:04.639Z,12.03
2018-06-25T00:30:08.904Z,12.03
2018-06-25T00:30:13.228Z,12.03
2018-06-25T00:30:17.328Z,12.03
2018-06-25T00:30:21.373Z,12.03
2018-06-25T00:30:25.684Z,12.02
2018-06-25T00:30:29.883Z,12.03
2018-06-25T00:30:34.190Z,12.03
2018-06-25T00:30:38.391Z,12.02
2018-06-25T00:30:42.591Z,12.02
2018-06-25T00:30:46.694Z,12.02
2018-06-25T00:30:51.028Z,12.03
2018-06-25T00:30:55.330Z,12.01
2018-06-25T00:30:59.525Z,12.02
2018-06-25T00:31:03.622Z,12.01
2018-06-25T00:31:07.817Z,12.02
2018-06-25T00:31:12.021Z,12.01
2018-06-25T00:31:16.120Z,12.01
2018-06-25T00:31:20.319Z,12.02
2018-06-25T00:31:24.636Z,12.02
2018-06-25T00:31:28.946Z,12.01
2018-06-25T00:31:33.148Z,12.01
2018-06-25T00:31:37.355Z,12.02
2018-06-25T00:31:41.673Z,12.02
2018-06-25T00:31:45.876Z,12
2018-06-25T00:31:50.194Z,12
2018-06-25T00:31:54.289Z,12.01
2018-06-25T00:31:58.498Z,12.01
2018-06-25T00:32:02.484Z,12
2018-06-25T00:32:06.479Z,12.01
2018-06-25T00:32:10.693Z,12
2018-06-25T00:32:14.692Z,12.02
2018-06-25T00:32:18.894Z,12.01
2018-06-25T00:32:23.207Z,12
2018-06-25T00:32:27.410Z,12
2018-06-25T00:32:31.736Z,12
2018-06-25T00:32:35.841Z,11.99
2018-06-25T00:32:40.049Z,12
2018-06-25T00:32:44.042Z,12.01
2018-06-25T00:32:48.384Z,12.01
2018-06-25T00:32:52.584Z,11.99
2018-06-25T00:32:56.782Z,12.01
2018-06-25T00:33:00.884Z,12
2018-06-25T00:33:05.093Z,12.01
2018-06-25T00:33:09.192Z,12.01
2018-06-25T00:33:13.399Z,12
2018-06-25T00:33:17.599Z,12.01
2018-06-25T00:33:21.698Z,12
2018-06-25T00:33:25.900Z,12
2018-06-25T00:33:30.005Z,12.01
2018-06-25T00:33:34.098Z,12.01
2018-06-25T00:33:38.308Z,12.01
2018-06-25T00:33:42.509Z,12.01
2018-06-25T00:33:46.817Z,12
2018-06-25T00:33:50.910Z,12
2018-06-25T00:33:55.223Z,12
2018-06-25T00:33:59.431Z,12.01
2018-06-25T00:34:03.689Z,12
2018-06-25T00:34:07.789Z,12.01
2018-06-25T00:34:12.103Z,12.01
2018-06-25T00:34:16.200Z,12.01
2018-06-25T00:34:20.503Z,12.01
2018-06-25T00:34:24.704Z,12.01
2018-06-25T00:34:29.013Z,12.01
2018-06-25T00:34:33.320Z,12.01
2018-06-25T00:34:37.627Z,12
2018-06-25T00:34:41.724Z,12.01
2018-06-25T00:34:46.035Z,12.01
2018-06-25T00:34:50.294Z,12.01
2018-06-25T00:34:54.602Z,12.01
2018-06-25T00:34:58.908Z,12.01
2018-06-25T00:35:03.173Z,12
2018-06-25T00:35:07.371Z,12.01
2018-06-25T00:35:11.574Z,12.01
2018-06-25T00:35:15.781Z,12.02
2018-06-25T00:35:19.999Z,12.01
2018-06-25T00:35:24.305Z,12.02
2018-06-25T00:35:28.507Z,12.02
2018-06-25T00:35:32.710Z,12.02
2018-06-25T00:35:36.816Z,12.01
2018-06-25T00:35:40.919Z,12.02
2018-06-25T00:35:45.015Z,12.01
2018-06-25T00:35:49.115Z,12.02
2018-06-25T00:35:53.209Z,12.01
2018-06-25T00:35:57.409Z,12.03
2018-06-25T00:36:01.612Z,12.02
2018-06-25T00:36:05.820Z,12.02
2018-06-25T00:36:09.914Z,12.02
2018-06-25T00:36:14.124Z,12.02
2018-06-25T00:36:18.427Z,12.02
2018-06-25T00:36:22.572Z,12.02
2018-06-25T00:36:26.778Z,12.02
2018-06-25T00:36:30.982Z,12.02
2018-06-25T00:36:35.183Z,12.02
2018-06-25T00:36:39.282Z,12.02
2018-06-25T00:36:43.382Z,12.02
2018-06-25T00:36:47.595Z,12.02
2018-06-25T00:36:51.908Z,12.02
2018-06-25T00:36:56.117Z,12.02
2018-06-25T00:37:00.320Z,12.02
2018-06-25T00:37:04.310Z,12.02
2018-06-25T00:37:08.300Z,12.03
2018-06-25T00:37:12.607Z,12.02
2018-06-25T00:37:16.811Z,12.03
2018-06-25T00:37:21.113Z,12.01
2018-06-25T00:37:25.322Z,12.02
2018-06-25T00:37:29.641Z,12.02
2018-06-25T00:37:33.843Z,12.03
2018-06-25T00:37:38.049Z,12.02
2018-06-25T00:37:42.145Z,12.03
2018-06-25T00:37:46.237Z,12.02
2018-06-25T00:37:50.439Z,12.03
2018-06-25T00:37:54.749Z,12.03
2018-06-25T00:37:58.950Z,12.03
2018-06-25T00:38:02.934Z,12.01
2018-06-25T00:38:07.135Z,12.02
2018-06-25T00:38:11.448Z,12.03
2018-06-25T00:38:15.754Z,12.03
2018-06-25T00:38:20.067Z,12.03
2018-06-25T00:38:24.060Z,12.02
2018-06-25T00:38:28.160Z,12.03
2018-06-25T00:38:32.258Z,12.03
2018-06-25T00:38:36.355Z,12.03
2018-06-25T00:38:40.341Z,12.03
2018-06-25T00:38:44.551Z,12.03
2018-06-25T00:38:48.860Z,12.02
2018-06-25T00:38:53.173Z,12.03
2018-06-25T00:38:57.488Z,12.03
2018-06-25T00:39:01.683Z,12.03
2018-06-25T00:39:05.785Z,12.03
2018-06-25T00:39:09.881Z,12.04
2018-06-25T00:39:13.979Z,12.03
2018-06-25T00:39:18.184Z,12.03
2018-06-25T00:39:22.384Z,12.04
2018-06-25T00:39:26.589Z,12.03
2018-06-25T00:39:30.682Z,12.03
2018-06-25T00:39:34.989Z,12.03
2018-06-25T00:39:39.301Z,12.03
2018-06-25T00:39:43.609Z,12.03
2018-06-25T00:39:47.911Z,12.03
2018-06-25T00:39:52.017Z,12.02
2018-06-25T00:39:56.327Z,12.03
2018-06-25T00:40:00.528Z,12.03
2018-06-25T00:40:04.514Z,12.03
2018-06-25T00:40:08.834Z,12.03
2018-06-25T00:40:12.934Z,12.03
2018-06-25T00:40:17.240Z,12.03
2018-06-25T00:40:21.236Z,12.04
2018-06-25T00:40:25.332Z,12.03
2018-06-25T00:40:29.531Z,12.03
2018-06-25T00:40:33.847Z,12.03
2018-06-25T00:40:38.160Z,12.03
2018-06-25T00:40:42.364Z,12.03
2018-06-25T00:40:46.685Z,12.03
2018-06-25T00:40:50.891Z,12.03
2018-06-25T00:40:55.095Z,12.02
2018-06-25T00:40:59.408Z,12.03
2018-06-25T00:41:03.667Z,12.02
2018-06-25T00:41:07.976Z,12.03
2018-06-25T00:41:12.191Z,12.03
2018-06-25T00:41:16.390Z,12.03
2018-06-25T00:41:20.485Z,12.03
2018-06-25T00:41:24.693Z,12.02
2018-06-25T00:41:28.903Z,12.02
2018-06-25T00:41:33.107Z,12.02
2018-06-25T00:41:37.316Z,12.02
2018-06-25T00:41:41.411Z,12.02
2018-06-25T00:41:45.734Z,12.02
2018-06-25T00:41:49.940Z,12.02
2018-06-25T00:41:54.251Z,12.03
2018-06-25T00:41:58.562Z,12.02
2018-06-25T00:42:02.553Z,12.02
2018-06-25T00:42:06.765Z,12.01
2018-06-25T00:42:11.021Z,12.01
2018-06-25T00:42:15.232Z,12.03
2018-06-25T00:42:19.539Z,12.01
2018-06-25T00:42:23.745Z,12.01
2018-06-25T00:42:27.947Z,12.01
2018-06-25T00:42:32.150Z,12.02
2018-06-25T00:42:36.138Z,12.02
2018-06-25T00:42:40.338Z,12.01
2018-06-25T00:42:44.435Z,12.03
2018-06-25T00:42:48.636Z,12.02
2018-06-25T00:42:52.835Z,12.02
2018-06-25T00:42:56.929Z,12.01
2018-06-25T00:43:01.025Z,12.01
2018-06-25T00:43:05.128Z,12.02
2018-06-25T00:43:09.326Z,12
2018-06-25T00:43:13.428Z,12.01
2018-06-25T00:43:17.629Z,12
2018-06-25T00:43:21.832Z,12.01
2018-06-25T00:43:26.144Z,12.01
2018-06-25T00:43:30.352Z,12
2018-06-25T00:43:34.557Z,12.02
2018-06-25T00:43:38.754Z,12
2018-06-25T00:43:42.843Z,12.02
2018-06-25T00:43:46.937Z,12.01
2018-06-25T00:43:51.247Z,12.01
2018-06-25T00:43:55.450Z,12.01
2018-06-25T00:43:59.769Z,12.01
2018-06-25T00:44:03.869Z,12.01
2018-06-25T00:44:08.183Z,12
2018-06-25T00:44:12.547Z,12.01
2018-06-25T00:44:16.859Z,12.01
2018-06-25T00:44:21.063Z,12.01
2018-06-25T00:44:25.270Z,12.01
2018-06-25T00:44:29.152Z,12.01
2018-06-25T00:44:33.464Z,12.02
2018-06-25T00:44:37.665Z,12.01
2018-06-25T00:44:41.876Z,12.01
2018-06-25T00:44:46.183Z,12
2018-06-25T00:44:50.173Z,12.01
2018-06-25T00:44:54.387Z,12
2018-06-25T00:44:58.692Z,12
2018-06-25T00:45:02.698Z,12.01
2018-06-25T00:45:06.794Z,12
2018-06-25T00:45:11.003Z,12
2018-06-25T00:45:15.316Z,12
2018-06-25T00:45:19.410Z,12.01
2018-06-25T00:45:23.506Z,12.01
2018-06-25T00:45:27.497Z,12
2018-06-25T00:45:31.696Z,12.01
2018-06-25T00:45:36.015Z,12.01
2018-06-25T00:45:40.329Z,12
2018-06-25T00:45:44.644Z,12
2018-06-25T00:45:48.743Z,11.99
2018-06-25T00:45:53.052Z,12
2018-06-25T00:45:57.039Z,12
2018-06-25T00:46:01.449Z,12
2018-06-25T00:46:05.335Z,12
2018-06-25T00:46:09.538Z,12.01
2018-06-25T00:46:13.737Z,12
2018-06-25T00:46:17.829Z,12
2018-06-25T00:46:22.033Z,12
2018-06-25T00:46:26.239Z,12
2018-06-25T00:46:30.334Z,12
2018-06-25T00:46:34.538Z,12
2018-06-25T00:46:38.763Z,12
2018-06-25T00:46:42.860Z,12
2018-06-25T00:46:47.171Z,12
2018-06-25T00:46:51.369Z,12
2018-06-25T00:46:55.698Z,11.99
2018-06-25T00:46:59.804Z,12
2018-06-25T00:47:04.009Z,11.99
2018-06-25T00:47:08.209Z,12
2018-06-25T00:47:12.517Z,11.99
2018-06-25T00:47:16.734Z,12
2018-06-25T00:47:21.041Z,12
2018-06-25T00:47:25.356Z,11.99
2018-06-25T00:47:29.559Z,11.99
2018-06-25T00:47:33.651Z,12
2018-06-25T00:47:37.864Z,11.99
2018-06-25T00:47:42.071Z,11.99
2018-06-25T00:47:46.274Z,11.99
2018-06-25T00:47:50.369Z,11.99
2018-06-25T00:47:54.672Z,11.99
2018-06-25T00:47:58.769Z,11.99
2018-06-25T00:48:03.101Z,11.98
2018-06-25T00:48:07.310Z,11.99
2018-06-25T00:48:11.677Z,11.98
2018-06-25T00:48:15.885Z,11.98
2018-06-25T00:48:20.084Z,11.98
2018-06-25T00:48:24.293Z,11.99
2018-06-25T00:48:28.502Z,11.98
2018-06-25T00:48:32.490Z,11.98
2018-06-25T00:48:36.692Z,11.97
2018-06-25T00:48:40.955Z,11.98
2018-06-25T00:48:45.163Z,11.98
2018-06-25T00:48:49.264Z,11.97
2018-06-25T00:48:53.368Z,11.98
2018-06-25T00:48:57.367Z,11.97
2018-06-25T00:49:01.463Z,11.97
2018-06-25T00:49:05.666Z,11.98
2018-06-25T00:49:09.972Z,11.97
2018-06-25T00:49:14.066Z,11.97
2018-06-25T00:49:18.425Z,11.97
2018-06-25T00:49:22.623Z,11.97
2018-06-25T00:49:26.823Z,11.96
2018-06-25T00:49:31.130Z,11.97
2018-06-25T00:49:35.224Z,11.96
2018-06-25T00:49:39.327Z,11.96
2018-06-25T00:49:43.532Z,11.96
2018-06-25T00:49:47.843Z,11.96
2018-06-25T00:49:52.043Z,11.96
2018-06-25T00:49:56.036Z,11.96
2018-06-25T00:50:00.244Z,11.95
2018-06-25T00:50:04.246Z,11.96
2018-06-25T00:50:08.456Z,11.95
2018-06-25T00:50:12.661Z,11.95
2018-06-25T00:50:16.974Z,11.95
2018-06-25T00:50:21.174Z,11.95
2018-06-25T00:50:25.489Z,11.95
2018-06-25T00:50:29.587Z,11.94
2018-06-25T00:50:33.911Z,11.95
2018-06-25T00:50:38.118Z,11.95
2018-06-25T00:50:42.207Z,11.95
2018-06-25T00:50:46.308Z,11.94
2018-06-25T00:50:50.510Z,11.94
2018-06-25T00:50:54.861Z,11.94
2018-06-25T00:50:59.062Z,11.94
2018-06-25T00:51:03.046Z,11.94
2018-06-25T00:51:07.244Z,11.94
2018-06-25T00:51:11.447Z,11.94
2018-06-25T00:51:15.756Z,11.93
2018-06-25T00:51:20.066Z,11.93
2018-06-25T00:51:24.376Z,11.93
2018-06-25T00:51:28.570Z,11.93
2018-06-25T00:51:32.878Z,11.93
2018-06-25T00:51:37.184Z,11.93
2018-06-25T00:51:41.379Z,11.93
2018-06-25T00:51:45.685Z,11.92
2018-06-25T00:51:49.677Z,11.93
2018-06-25T00:51:53.885Z,11.93
2018-06-25T00:51:58.090Z,11.93
2018-06-25T00:52:02.285Z,11.93
2018-06-25T00:52:06.386Z,11.92
2018-06-25T00:52:10.596Z,11.92
2018-06-25T00:52:14.587Z,11.92
2018-06-25T00:52:18.896Z,11.92
2018-06-25T00:52:23.100Z,11.92
2018-06-25T00:52:27.303Z,11.92
2018-06-25T00:52:31.506Z,11.92
2018-06-25T00:52:35.602Z,11.92
2018-06-25T00:52:39.760Z,11.91
2018-06-25T00:52:43.961Z,11.91
2018-06-25T00:52:48.053Z,11.91
2018-06-25T00:52:52.196Z,11.91
2018-06-25T00:52:56.402Z,11.91
2018-06-25T00:53:00.493Z,11.91
2018-06-25T00:53:04.693Z,11.91
2018-06-25T00:53:08.896Z,11.92
2018-06-25T00:53:13.214Z,11.9
2018-06-25T00:53:17.208Z,11.92
2018-06-25T00:53:21.302Z,11.92
2018-06-25T00:53:25.510Z,11.92
2018-06-25T00:53:29.818Z,11.91
2018-06-25T00:53:34.130Z,11.91
2018-06-25T00:53:38.329Z,11.9
2018-06-25T00:53:42.633Z,11.9
2018-06-25T00:53:46.947Z,11.9
2018-06-25T00:53:51.256Z,11.9
2018-06-25T00:53:55.365Z,11.9
2018-06-25T00:53:59.566Z,11.9
2018-06-25T00:54:03.774Z,11.89
2018-06-25T00:54:07.982Z,11.89
2018-06-25T00:54:12.185Z,11.89
2018-06-25T00:54:16.501Z,11.88
2018-06-25T00:54:20.811Z,11.88
2018-06-25T00:54:24.909Z,11.89
2018-06-25T00:54:28.798Z,11.89
2018-06-25T00:54:33.114Z,11.87